Time;durP1;ratioP1;P1;durP2;ratioP2;P2;SDS_P1;SDS_P2;PMS_P1;PMS_P2;Temp;Humidity;BMP_temperature;BMP_pressure;BME280_temperature;BME280_humidity;BME280_pressure;Samples;Min_cycle;Max_cycle;Signal;HPM_P1;HPM_P2
2022/08/27 00:00:42;;;;;;;;;;;16.10;99.90;;;;;;5001911;28;19930;-79
2022/08/27 00:03:08;;;;;;;;;;;16.10;99.90;;;;;;4993274;28;20002;-79
2022/08/27 00:05:35;;;;;;;;;;;16.10;99.90;;;;;;4995142;28;19925;-80
2022/08/27 00:08:02;;;;;;;;;;;16.10;99.90;;;;;;5015059;28;19947;-82
2022/08/27 00:10:28;;;;;;;;;;;16.10;99.90;;;;;;5033773;28;19924;-85
2022/08/27 00:12:55;;;;;;;;;;;16.10;99.90;;;;;;5013693;28;20441;-82
2022/08/27 00:15:21;;;;;;;;;;;16.10;99.90;;;;;;5029655;28;20025;-81
2022/08/27 00:17:47;;;;;;;;;;;16.10;99.90;;;;;;5032894;28;20400;-82
2022/08/27 00:20:14;;;;;;;;;;;16.10;99.90;;;;;;5031029;28;20557;-80
2022/08/27 00:22:40;;;;;;;;;;;16.10;99.90;;;;;;5026950;28;20394;-82
2022/08/27 00:25:06;;;;;;;;;;;16.10;99.90;;;;;;5014844;28;20068;-82
2022/08/27 00:27:32;;;;;;;;;;;16.10;99.90;;;;;;5032381;28;20379;-86
2022/08/27 00:29:59;;;;;;;;;;;16.10;99.90;;;;;;5010895;28;19955;-83
2022/08/27 00:32:45;;;;;;;;;;;16.10;99.90;;;;;;5033097;28;20082;-84
2022/08/27 00:35:12;;;;;;;;;;;16.10;99.90;;;;;;5033273;28;20010;-84
2022/08/27 00:37:39;;;;;;;;;;;16.10;99.90;;;;;;5031188;28;20016;-81
2022/08/27 00:40:06;;;;;;;;;;;16.00;99.90;;;;;;5030439;28;19929;-83
2022/08/27 00:42:34;;;;;;;;;;;16.00;99.90;;;;;;5030953;28;19925;-86
2022/08/27 00:45:00;;;;;;;;;;;16.00;99.90;;;;;;5048146;28;20358;-81
2022/08/27 00:47:45;;;;;;;;;;;16.00;99.90;;;;;;5032604;28;20007;-83
2022/08/27 00:50:13;;;;;;;;;;;15.90;99.90;;;;;;5014896;28;20286;-81
2022/08/27 00:52:44;;;;;;;;;;;16.00;99.90;;;;;;5033369;28;19944;-85
2022/08/27 00:55:12;;;;;;;;;;;15.90;99.90;;;;;;5029319;28;19939;-79
2022/08/27 00:57:39;;;;;;;;;;;15.90;99.90;;;;;;5050288;28;20374;-85
2022/08/27 01:00:07;;;;;;;;;;;15.80;99.90;;;;;;5034147;28;20579;-83
2022/08/27 01:02:33;;;;;;;;;;;15.80;99.90;;;;;;5029030;28;20336;-82
2022/08/27 01:05:01;;;;;;;;;;;15.80;99.90;;;;;;5022580;28;20586;-81
2022/08/27 01:07:28;;;;;;;;;;;15.70;99.90;;;;;;5030657;28;20578;-79
2022/08/27 01:09:57;;;;;;;;;;;15.70;99.90;;;;;;5029620;28;19943;-79
2022/08/27 01:12:24;;;;;;;;;;;15.70;99.90;;;;;;5028730;28;19929;-79
2022/08/27 01:14:51;;;;;;;;;;;15.70;99.90;;;;;;5049790;28;20351;-80
2022/08/27 01:17:17;;;;;;;;;;;15.60;99.90;;;;;;5029889;28;20396;-81
2022/08/27 01:19:51;;;;;;;;;;;15.60;99.90;;;;;;5014490;28;20007;-81
2022/08/27 01:22:36;;;;;;;;;;;15.60;99.90;;;;;;5015577;28;19971;-79
2022/08/27 01:25:08;;;;;;;;;;;15.60;99.90;;;;;;5023367;28;20714;-83
2022/08/27 01:27:34;;;;;;;;;;;15.50;99.90;;;;;;5016419;28;20419;-82
2022/08/27 01:30:02;;;;;;;;;;;15.50;99.90;;;;;;5016866;28;19928;-83
2022/08/27 01:32:32;;;;;;;;;;;15.50;99.90;;;;;;5034014;28;19925;-80
2022/08/27 01:34:58;;;;;;;;;;;15.40;99.90;;;;;;5029027;28;20387;-81
2022/08/27 01:37:24;;;;;;;;;;;15.50;99.90;;;;;;5011698;28;19924;-79
2022/08/27 01:39:51;;;;;;;;;;;15.40;99.90;;;;;;4992374;28;19926;-80
2022/08/27 01:42:23;;;;;;;;;;;15.40;99.90;;;;;;5032411;28;20497;-82
2022/08/27 01:44:54;;;;;;;;;;;15.40;99.90;;;;;;5014595;28;19939;-80
2022/08/27 01:47:20;;;;;;;;;;;15.40;99.90;;;;;;5009457;28;19933;-81
2022/08/27 01:49:55;;;;;;;;;;;15.40;99.90;;;;;;5021705;28;19928;-80
2022/08/27 01:59:26;;;;;;;;;;;15.40;99.90;;;;;;5053817;28;19919;-81
2022/08/27 02:01:53;;;;;;;;;;;15.40;99.90;;;;;;5036686;28;20419;-82
2022/08/27 02:04:19;;;;;;;;;;;15.30;99.90;;;;;;5031035;28;20538;-82
2022/08/27 02:12:24;;;;;;;;;;;15.30;99.90;;;;;;5030314;28;19929;-80
2022/08/27 02:14:51;;;;;;;;;;;15.30;99.90;;;;;;4979809;28;19925;-82
2022/08/27 02:17:17;;;;;;;;;;;15.30;99.90;;;;;;4994589;28;19933;-81
2022/08/27 02:19:43;;;;;;;;;;;15.30;99.90;;;;;;5011187;28;19925;-81
2022/08/27 02:22:08;;;;;;;;;;;15.30;99.90;;;;;;4995590;28;19988;-84
2022/08/27 02:24:34;;;;;;;;;;;15.30;99.90;;;;;;5010657;28;20419;-83
2022/08/27 02:27:01;;;;;;;;;;;15.30;99.90;;;;;;4994644;28;19921;-82
2022/08/27 02:29:27;;;;;;;;;;;15.30;99.90;;;;;;5010411;28;19960;-83
2022/08/27 02:31:53;;;;;;;;;;;15.30;99.90;;;;;;5009814;28;21079;-84
2022/08/27 02:34:19;;;;;;;;;;;15.30;99.90;;;;;;4981210;28;19983;-83
2022/08/27 02:36:49;;;;;;;;;;;15.20;99.90;;;;;;4983222;28;19975;-83
2022/08/27 02:39:14;;;;;;;;;;;15.20;99.90;;;;;;4994916;28;19926;-84
2022/08/27 02:41:40;;;;;;;;;;;15.20;99.90;;;;;;4976114;28;19925;-84
2022/08/27 02:44:06;;;;;;;;;;;15.10;99.90;;;;;;4978134;28;19979;-85
2022/08/27 02:46:32;;;;;;;;;;;15.10;99.90;;;;;;5010700;28;19933;-83
2022/08/27 02:49:10;;;;;;;;;;;15.10;99.90;;;;;;5011291;28;19937;-82
2022/08/27 02:51:36;;;;;;;;;;;15.00;99.90;;;;;;5009572;28;19929;-88
2022/08/27 02:54:02;;;;;;;;;;;15.00;99.90;;;;;;4995694;28;20003;-85
2022/08/27 02:56:28;;;;;;;;;;;15.10;99.90;;;;;;4993432;28;19931;-86
2022/08/27 02:58:54;;;;;;;;;;;15.00;99.90;;;;;;5009941;28;20511;-85
2022/08/27 03:01:22;;;;;;;;;;;14.90;99.90;;;;;;4994859;28;19921;-84
2022/08/27 03:03:48;;;;;;;;;;;14.90;99.90;;;;;;4986748;28;19929;-83
2022/08/27 03:06:14;;;;;;;;;;;14.90;99.90;;;;;;4997972;28;19925;-83
2022/08/27 03:08:39;;;;;;;;;;;14.90;99.90;;;;;;4975148;28;19933;-83
2022/08/27 03:11:08;;;;;;;;;;;14.80;99.90;;;;;;4975346;28;19979;-83
2022/08/27 03:13:35;;;;;;;;;;;14.80;99.90;;;;;;4992697;28;20499;-83
2022/08/27 03:16:01;;;;;;;;;;;14.80;99.90;;;;;;4994537;28;20514;-83
2022/08/27 03:18:27;;;;;;;;;;;14.70;99.90;;;;;;4993845;28;20023;-83
2022/08/27 03:20:54;;;;;;;;;;;14.80;99.90;;;;;;4976617;28;19991;-84
2022/08/27 03:23:23;;;;;;;;;;;14.80;99.90;;;;;;4990440;28;19936;-83
2022/08/27 03:25:50;;;;;;;;;;;14.80;99.90;;;;;;4993741;28;20287;-83
2022/08/27 03:28:20;;;;;;;;;;;14.80;99.90;;;;;;5006810;28;20515;-83
2022/08/27 03:30:47;;;;;;;;;;;14.70;99.90;;;;;;4991603;28;20320;-84
2022/08/27 03:33:14;;;;;;;;;;;14.70;99.90;;;;;;4994554;28;19964;-84
2022/08/27 03:35:40;;;;;;;;;;;14.80;99.90;;;;;;4971120;28;19933;-84
2022/08/27 03:38:05;;;;;;;;;;;14.70;99.90;;;;;;4997274;28;20013;-84
2022/08/27 03:40:31;;;;;;;;;;;14.70;99.90;;;;;;4985387;28;20000;-84
2022/08/27 03:42:57;;;;;;;;;;;14.60;99.90;;;;;;4994219;28;19971;-86
2022/08/27 03:45:23;;;;;;;;;;;14.60;99.90;;;;;;5009625;28;19995;-86
2022/08/27 03:47:49;;;;;;;;;;;14.60;99.90;;;;;;5011685;28;20414;-86
2022/08/27 03:50:15;;;;;;;;;;;14.60;99.90;;;;;;4993520;28;20515;-85
2022/08/27 03:53:00;;;;;;;;;;;14.70;99.90;;;;;;4977506;28;19933;-85
2022/08/27 03:55:27;;;;;;;;;;;14.70;99.90;;;;;;5010409;28;19929;-85
2022/08/27 03:57:53;;;;;;;;;;;14.70;99.90;;;;;;4980187;28;20056;-84
2022/08/27 04:00:18;;;;;;;;;;;14.70;99.90;;;;;;5009263;28;20012;-84
2022/08/27 04:02:44;;;;;;;;;;;14.70;99.90;;;;;;5007694;28;19929;-84
2022/08/27 04:05:12;;;;;;;;;;;14.70;99.90;;;;;;5009882;28;19979;-86
2022/08/27 04:07:39;;;;;;;;;;;14.70;99.90;;;;;;5011317;28;19940;-85
2022/08/27 04:10:08;;;;;;;;;;;14.70;99.90;;;;;;5009938;28;19925;-85
2022/08/27 04:12:34;;;;;;;;;;;14.70;99.90;;;;;;4990153;28;20052;-82
2022/08/27 04:17:50;;;;;;;;;;;14.70;99.90;;;;;;5009505;28;19933;-86
2022/08/27 04:20:15;;;;;;;;;;;14.70;99.90;;;;;;4993411;28;19952;-85
2022/08/27 04:22:41;;;;;;;;;;;14.70;99.90;;;;;;4974440;28;20012;-84
2022/08/27 04:25:26;;;;;;;;;;;14.70;99.90;;;;;;4978470;28;19925;-87
2022/08/27 04:27:52;;;;;;;;;;;14.70;99.90;;;;;;4993599;28;20020;-84
2022/08/27 04:30:18;;;;;;;;;;;14.80;99.90;;;;;;5010829;28;20031;-84
2022/08/27 04:32:44;;;;;;;;;;;14.70;99.90;;;;;;4996640;28;19933;-85
2022/08/27 04:35:10;;;;;;;;;;;14.70;99.90;;;;;;4977717;28;19931;-86
2022/08/27 04:37:37;;;;;;;;;;;14.70;99.90;;;;;;4991625;28;19933;-88
2022/08/27 04:40:05;;;;;;;;;;;14.70;99.90;;;;;;4991183;28;19952;-85
2022/08/27 04:42:31;;;;;;;;;;;14.70;99.90;;;;;;5011580;28;19935;-88
2022/08/27 04:45:02;;;;;;;;;;;14.70;99.90;;;;;;4995202;28;20052;-85
2022/08/27 04:47:30;;;;;;;;;;;14.80;99.90;;;;;;4994801;28;20038;-85
2022/08/27 04:49:56;;;;;;;;;;;14.70;99.90;;;;;;4992635;28;19964;-86
2022/08/27 04:52:22;;;;;;;;;;;14.80;99.90;;;;;;4977586;28;19929;-85
2022/08/27 04:54:48;;;;;;;;;;;14.80;99.90;;;;;;4993669;28;20549;-87
2022/08/27 04:57:14;;;;;;;;;;;14.80;99.90;;;;;;4973152;28;19933;-84
2022/08/27 04:59:39;;;;;;;;;;;14.90;99.90;;;;;;4989506;28;19926;-85
2022/08/27 05:02:07;;;;;;;;;;;14.90;99.90;;;;;;4987190;28;19971;-85
2022/08/27 05:07:55;;;;;;;;;;;14.90;99.90;;;;;;5024635;28;19989;-83
2022/08/27 05:10:21;;;;;;;;;;;14.90;99.90;;;;;;4992921;28;19969;-83
2022/08/27 05:12:48;;;;;;;;;;;15.00;99.90;;;;;;4971673;28;19925;-84
2022/08/27 05:15:13;;;;;;;;;;;15.10;99.90;;;;;;4970588;28;20365;-84
2022/08/27 05:17:39;;;;;;;;;;;15.10;99.90;;;;;;4980056;28;19932;-84
2022/08/27 05:20:27;;;;;;;;;;;15.20;99.90;;;;;;4978748;28;19925;-84
2022/08/27 05:22:52;;;;;;;;;;;15.20;99.90;;;;;;5011842;28;19930;-83
2022/08/27 05:25:18;;;;;;;;;;;15.30;99.90;;;;;;4980161;28;19944;-84
2022/08/27 05:27:44;;;;;;;;;;;15.30;99.90;;;;;;4980312;28;19929;-84
2022/08/27 05:30:13;;;;;;;;;;;15.40;99.90;;;;;;5010901;28;19925;-83
2022/08/27 05:32:42;;;;;;;;;;;15.40;99.90;;;;;;4999345;28;19929;-84
2022/08/27 05:35:08;;;;;;;;;;;15.40;99.90;;;;;;4980491;28;19932;-85
2022/08/27 05:37:34;;;;;;;;;;;15.50;99.90;;;;;;4976932;28;19956;-84
2022/08/27 05:40:06;;;;;;;;;;;15.50;99.90;;;;;;4996586;28;19968;-86
2022/08/27 05:42:32;;;;;;;;;;;15.60;99.90;;;;;;4984355;28;19926;-85
2022/08/27 05:44:57;;;;;;;;;;;15.60;99.90;;;;;;4996217;28;19925;-83
2022/08/27 05:47:23;;;;;;;;;;;15.70;99.90;;;;;;4996210;28;19985;-84
2022/08/27 05:49:53;;;;;;;;;;;15.80;99.90;;;;;;4996930;28;19932;-86
2022/08/27 05:52:19;;;;;;;;;;;15.90;99.90;;;;;;4996270;28;20577;-86
2022/08/27 05:54:44;;;;;;;;;;;16.00;99.90;;;;;;4994540;28;19929;-85
2022/08/27 05:57:10;;;;;;;;;;;16.10;99.90;;;;;;4979124;28;19929;-84
2022/08/27 06:02:20;;;;;;;;;;;16.20;99.90;;;;;;5000779;28;19949;-84
2022/08/27 06:04:47;;;;;;;;;;;16.30;99.90;;;;;;5006088;28;20368;-87
2022/08/27 06:07:14;;;;;;;;;;;16.40;99.90;;;;;;4991233;28;19932;-85
2022/08/27 06:09:41;;;;;;;;;;;16.40;99.90;;;;;;4987065;28;19963;-87
2022/08/27 06:12:07;;;;;;;;;;;16.40;99.90;;;;;;4974174;28;19976;-87
2022/08/27 06:14:35;;;;;;;;;;;16.50;99.90;;;;;;4987228;28;19939;-86
2022/08/27 06:19:41;;;;;;;;;;;16.50;99.90;;;;;;5073540;23;19928;-87
2022/08/27 06:22:07;;;;;;;;;;;16.60;99.90;;;;;;5012482;28;19982;-86
2022/08/27 06:24:33;;;;;;;;;;;16.60;99.90;;;;;;5008238;28;19944;-87
2022/08/27 06:26:59;;;;;;;;;;;16.70;99.90;;;;;;4997422;28;20444;-86
2022/08/27 06:29:25;;;;;;;;;;;16.70;99.90;;;;;;4998444;28;19920;-85
2022/08/27 06:31:55;;;;;;;;;;;16.70;99.90;;;;;;5011324;28;19932;-87
2022/08/27 06:34:21;;;;;;;;;;;16.80;99.90;;;;;;4998759;28;19928;-86
2022/08/27 06:36:46;;;;;;;;;;;16.80;99.90;;;;;;5007167;28;20303;-83
2022/08/27 06:39:14;;;;;;;;;;;16.80;99.90;;;;;;5030335;28;19929;-84
2022/08/27 06:41:41;;;;;;;;;;;16.90;99.90;;;;;;5028143;28;19925;-83
2022/08/27 06:44:08;;;;;;;;;;;17.00;99.90;;;;;;5012340;28;19925;-83
2022/08/27 06:46:35;;;;;;;;;;;17.00;99.90;;;;;;5010656;28;19936;-83
2022/08/27 06:49:01;;;;;;;;;;;17.00;99.90;;;;;;5028475;28;19932;-83
2022/08/27 06:51:28;;;;;;;;;;;17.10;99.90;;;;;;5005268;28;19928;-81
2022/08/27 06:54:00;;;;;;;;;;;17.20;99.90;;;;;;5013517;28;19928;-85
2022/08/27 06:56:27;;;;;;;;;;;17.20;99.90;;;;;;5023526;28;19933;-86
2022/08/27 06:58:54;;;;;;;;;;;17.30;99.90;;;;;;5028701;28;20423;-83
2022/08/27 07:01:27;;;;;;;;;;;17.40;99.90;;;;;;4994715;28;19971;-84
2022/08/27 07:03:56;;;;;;;;;;;17.40;99.90;;;;;;5006452;28;20367;-84
2022/08/27 07:06:22;;;;;;;;;;;17.60;99.90;;;;;;5007457;28;19925;-84
2022/08/27 07:08:48;;;;;;;;;;;18.20;99.90;;;;;;5008239;28;19928;-83
2022/08/27 07:11:14;;;;;;;;;;;19.20;99.90;;;;;;4998747;28;19929;-84
2022/08/27 07:13:44;;;;;;;;;;;19.60;99.90;;;;;;5008242;28;19998;-87
2022/08/27 07:16:11;;;;;;;;;;;19.50;99.90;;;;;;4995191;28;19924;-84
2022/08/27 07:18:38;;;;;;;;;;;19.40;99.90;;;;;;5025596;28;20027;-84
2022/08/27 07:21:05;;;;;;;;;;;19.10;99.90;;;;;;5013736;28;19929;-87
2022/08/27 07:23:32;;;;;;;;;;;19.00;99.90;;;;;;5026725;28;19936;-84
2022/08/27 07:25:59;;;;;;;;;;;19.70;99.90;;;;;;5025524;28;20338;-85
2022/08/27 07:28:25;;;;;;;;;;;20.80;99.90;;;;;;4993348;28;19925;-88
2022/08/27 07:30:52;;;;;;;;;;;22.00;99.90;;;;;;5007592;28;19933;-86
2022/08/27 07:33:18;;;;;;;;;;;22.90;99.90;;;;;;5024242;28;20015;-86
2022/08/27 07:35:45;;;;;;;;;;;23.80;99.90;;;;;;5024240;28;19935;-83
2022/08/27 07:38:21;;;;;;;;;;;24.40;99.90;;;;;;5007718;28;19933;-86
2022/08/27 07:40:48;;;;;;;;;;;24.20;99.90;;;;;;5021670;28;19972;-84
2022/08/27 07:46:04;;;;;;;;;;;22.00;99.90;;;;;;5022537;28;19934;-87
2022/08/27 07:48:33;;;;;;;;;;;21.10;99.90;;;;;;5007663;28;20034;-83
2022/08/27 07:51:02;;;;;;;;;;;20.40;99.90;;;;;;5002372;28;19948;-81
2022/08/27 07:53:28;;;;;;;;;;;19.90;99.90;;;;;;5020109;28;19944;-79
2022/08/27 07:55:56;;;;;;;;;;;19.60;99.90;;;;;;5009299;28;19956;-83
2022/08/27 07:58:23;;;;;;;;;;;;;;;;;;5008593;28;19925;-85
2022/08/27 08:00:48;;;;;;;;;;;19.20;99.90;;;;;;5005591;28;19933;-80
2022/08/27 08:03:14;;;;;;;;;;;19.10;99.90;;;;;;4989870;28;19931;-80
2022/08/27 08:05:43;;;;;;;;;;;18.90;99.90;;;;;;4993495;28;19926;-81
2022/08/27 08:08:10;;;;;;;;;;;18.70;99.90;;;;;;4984756;28;19934;-87
2022/08/27 08:10:39;;;;;;;;;;;18.70;99.90;;;;;;5007858;28;19934;-82
2022/08/27 08:13:31;;;;;;;;;;;18.60;99.90;;;;;;5000980;28;20010;-84
2022/08/27 08:15:58;;;;;;;;;;;18.50;99.90;;;;;;5006126;28;20304;-82
2022/08/27 08:18:34;;;;;;;;;;;18.50;99.90;;;;;;5020146;28;20393;-83
2022/08/27 08:21:04;;;;;;;;;;;18.50;99.90;;;;;;5023370;28;19925;-84
2022/08/27 08:23:32;;;;;;;;;;;18.50;99.90;;;;;;4999230;28;20039;-86
2022/08/27 08:26:20;;;;;;;;;;;18.50;99.90;;;;;;4994024;28;19925;-86
2022/08/27 08:28:46;;;;;;;;;;;18.60;99.90;;;;;;5006256;28;19936;-86
2022/08/27 08:31:27;;;;;;;;;;;18.70;99.90;;;;;;5009335;28;19964;-83
2022/08/27 08:33:53;;;;;;;;;;;18.70;99.90;;;;;;5006615;28;19936;-84
2022/08/27 08:36:19;;;;;;;;;;;18.70;99.90;;;;;;5003055;28;19930;-81
2022/08/27 08:38:46;;;;;;;;;;;19.00;99.90;;;;;;5006753;28;20280;-85
2022/08/27 08:41:27;;;;;;;;;;;19.10;99.90;;;;;;5007291;28;19936;-78
2022/08/27 08:43:54;;;;;;;;;;;19.20;99.90;;;;;;5003324;28;19932;-86
2022/08/27 08:46:31;;;;;;;;;;;19.30;99.90;;;;;;5004492;28;20379;-84
2022/08/27 08:49:04;;;;;;;;;;;19.20;99.90;;;;;;5007424;28;19984;-86
2022/08/27 08:51:33;;;;;;;;;;;19.20;99.90;;;;;;5005099;28;20466;-84
2022/08/27 08:54:17;;;;;;;;;;;19.30;99.90;;;;;;5023268;28;19925;-80
2022/08/27 08:57:04;;;;;;;;;;;19.50;99.90;;;;;;5003355;28;20020;-85
2022/08/27 08:59:36;;;;;;;;;;;19.50;99.90;;;;;;5021949;28;19933;-83
2022/08/27 09:08:47;;;;;;;;;;;18.90;99.90;;;;;;5032688;23;19939;-83
2022/08/27 09:11:17;;;;;;;;;;;18.50;99.90;;;;;;5009520;28;19975;-82
2022/08/27 09:13:48;;;;;;;;;;;18.80;99.90;;;;;;5017328;28;19963;-82
2022/08/27 09:16:17;;;;;;;;;;;18.90;99.90;;;;;;5003330;28;19933;-85
2022/08/27 09:18:44;;;;;;;;;;;18.90;99.90;;;;;;5016440;28;19932;-82
2022/08/27 09:21:26;;;;;;;;;;;19.00;99.90;;;;;;5014063;28;19948;-81
2022/08/27 09:23:57;;;;;;;;;;;19.00;99.90;;;;;;5015164;28;20410;-83
2022/08/27 09:26:26;;;;;;;;;;;19.00;99.90;;;;;;5030101;28;20013;-81
2022/08/27 09:29:15;;;;;;;;;;;18.90;99.90;;;;;;5012362;28;20317;-84
2022/08/27 09:31:46;;;;;;;;;;;18.90;99.90;;;;;;5019702;28;19948;-79
2022/08/27 09:34:12;;;;;;;;;;;18.90;99.90;;;;;;5007878;28;19925;-83
2022/08/27 09:36:47;;;;;;;;;;;18.90;99.90;;;;;;5025032;28;20076;-84
2022/08/27 09:39:16;;;;;;;;;;;18.80;99.90;;;;;;5009814;28;20535;-86
2022/08/27 09:41:44;;;;;;;;;;;18.90;99.90;;;;;;4993009;28;19924;-86
2022/08/27 09:44:21;;;;;;;;;;;19.00;99.90;;;;;;5008667;28;19929;-87
2022/08/27 09:46:58;;;;;;;;;;;19.10;99.90;;;;;;5008345;28;19944;-83
2022/08/27 09:49:35;;;;;;;;;;;19.70;99.90;;;;;;5010690;28;19928;-80
2022/08/27 09:52:02;;;;;;;;;;;20.30;99.90;;;;;;5009892;28;20379;-82
2022/08/27 09:54:36;;;;;;;;;;;20.00;99.90;;;;;;5042422;28;20383;-80
2022/08/27 09:57:03;;;;;;;;;;;19.90;99.90;;;;;;5009098;28;20417;-81
2022/08/27 09:59:38;;;;;;;;;;;19.70;99.90;;;;;;5006547;28;19970;-84
2022/08/27 10:02:05;;;;;;;;;;;19.50;99.90;;;;;;5009781;28;20055;-82
2022/08/27 10:04:36;;;;;;;;;;;19.40;99.90;;;;;;5011906;28;20051;-82
2022/08/27 10:07:18;;;;;;;;;;;19.30;99.90;;;;;;5012117;28;20347;-85
2022/08/27 10:09:50;;;;;;;;;;;19.30;99.90;;;;;;5009060;28;19944;-82
2022/08/27 10:12:19;;;;;;;;;;;19.30;99.90;;;;;;5070484;23;19929;-83
2022/08/27 10:14:56;;;;;;;;;;;19.20;99.90;;;;;;4992527;28;19925;-82
2022/08/27 10:17:25;;;;;;;;;;;19.20;99.90;;;;;;5007193;28;19929;-83
2022/08/27 10:20:03;;;;;;;;;;;19.70;99.90;;;;;;4988248;28;19929;-83
2022/08/27 10:22:35;;;;;;;;;;;19.20;99.90;;;;;;4993912;28;19971;-84
2022/08/27 10:25:19;;;;;;;;;;;19.20;99.90;;;;;;4984114;28;19929;-82
2022/08/27 10:27:45;;;;;;;;;;;19.20;99.90;;;;;;4981081;28;19932;-82
2022/08/27 10:30:34;;;;;;;;;;;19.20;99.90;;;;;;5025982;28;19932;-89
2022/08/27 10:33:14;;;;;;;;;;;19.20;99.90;;;;;;4981813;28;20384;-82
2022/08/27 10:36:00;;;;;;;;;;;19.20;99.90;;;;;;5005061;28;19937;-87
2022/08/27 10:38:40;;;;;;;;;;;19.10;99.90;;;;;;5011556;28;19925;-91
2022/08/27 10:41:41;;;;;;;;;;;19.60;99.90;;;;;;5010204;28;20391;-88
2022/08/27 10:44:26;;;;;;;;;;;19.80;99.90;;;;;;5000801;28;20004;-81
2022/08/27 10:46:52;;;;;;;;;;;20.20;99.90;;;;;;4990485;28;19965;-83
2022/08/27 10:49:37;;;;;;;;;;;20.10;99.90;;;;;;4988769;28;19984;-92
2022/08/27 10:52:03;;;;;;;;;;;20.00;99.90;;;;;;4997857;28;19933;-82
2022/08/27 10:54:48;;;;;;;;;;;19.80;99.90;;;;;;5002783;28;19944;-85
2022/08/27 10:57:41;;;;;;;;;;;19.70;99.90;;;;;;5006749;28;20042;-84
2022/08/27 11:00:10;;;;;;;;;;;19.60;99.90;;;;;;5003602;28;19925;-84
2022/08/27 11:02:58;;;;;;;;;;;19.60;99.90;;;;;;4981199;28;20472;-84
2022/08/27 11:05:35;;;;;;;;;;;19.60;99.90;;;;;;4974661;28;20033;-84
2022/08/27 11:08:20;;;;;;;;;;;19.70;99.90;;;;;;4996075;28;19955;-82
2022/08/27 11:10:49;;;;;;;;;;;19.90;99.90;;;;;;4982589;28;20004;-85
2022/08/27 11:13:18;;;;;;;;;;;19.90;99.90;;;;;;4982017;28;19963;-83
2022/08/27 11:15:46;;;;;;;;;;;20.00;99.90;;;;;;4985781;28;20459;-92
2022/08/27 11:18:26;;;;;;;;;;;20.10;99.90;;;;;;4984190;28;19960;-82
2022/08/27 11:21:15;;;;;;;;;;;20.20;99.90;;;;;;4984618;28;19934;-84
2022/08/27 11:27:08;;;;;;;;;;;20.80;99.90;;;;;;4910689;29;19938;-86
2022/08/27 11:29:38;;;;;;;;;;;21.00;99.90;;;;;;4997842;28;20019;-83
2022/08/27 11:32:17;;;;;;;;;;;21.00;99.90;;;;;;4997798;28;19933;-90
2022/08/27 11:35:19;;;;;;;;;;;20.80;99.90;;;;;;5002557;28;20172;-81
2022/08/27 11:38:06;;;;;;;;;;;20.50;99.90;;;;;;4993466;28;20276;-85
2022/08/27 11:40:51;;;;;;;;;;;20.50;99.90;;;;;;4980348;28;19979;-89
2022/08/27 11:43:20;;;;;;;;;;;20.60;99.90;;;;;;4995450;28;19964;-82
2022/08/27 11:46:04;;;;;;;;;;;20.60;99.90;;;;;;4986491;28;21666;-84
2022/08/27 11:48:31;;;;;;;;;;;20.80;99.90;;;;;;4983019;28;19933;-85
2022/08/27 11:51:01;;;;;;;;;;;21.10;99.90;;;;;;5001418;28;19932;-86
2022/08/27 11:53:29;;;;;;;;;;;21.50;99.90;;;;;;4994974;28;20516;-87
2022/08/27 11:55:55;;;;;;;;;;;21.50;99.90;;;;;;5007286;28;20315;-83
2022/08/27 11:58:23;;;;;;;;;;;21.30;99.90;;;;;;4991305;28;19936;-84
2022/08/27 12:00:52;;;;;;;;;;;21.20;99.90;;;;;;4995919;28;19972;-83
2022/08/27 12:03:18;;;;;;;;;;;21.20;99.90;;;;;;4987812;28;20348;-82
2022/08/27 12:05:45;;;;;;;;;;;21.00;99.90;;;;;;4990194;28;19929;-82
2022/08/27 12:08:28;;;;;;;;;;;21.00;99.90;;;;;;4975323;28;19968;-82
2022/08/27 12:10:54;;;;;;;;;;;21.00;99.90;;;;;;4994370;28;20343;-88
2022/08/27 12:13:42;;;;;;;;;;;21.10;99.90;;;;;;4964986;28;19937;-82
2022/08/27 12:16:11;;;;;;;;;;;21.30;99.90;;;;;;4994839;28;20128;-81
2022/08/27 12:18:56;;;;;;;;;;;21.30;99.90;;;;;;4963945;28;19925;-83
2022/08/27 12:21:25;;;;;;;;;;;21.10;99.90;;;;;;4971639;28;20016;-83
2022/08/27 12:24:09;;;;;;;;;;;20.90;99.90;;;;;;4963129;28;20040;-81
2022/08/27 12:26:37;;;;;;;;;;;20.80;99.90;;;;;;4970385;28;19937;-89
2022/08/27 12:32:15;;;;;;;;;;;21.10;99.90;;;;;;4973496;28;19933;-84
2022/08/27 12:34:46;;;;;;;;;;;20.90;99.90;;;;;;4958339;28;19929;-84
2022/08/27 12:37:12;;;;;;;;;;;20.80;99.90;;;;;;4971475;28;19933;-85
2022/08/27 12:39:41;;;;;;;;;;;20.70;99.90;;;;;;4987559;28;19933;-84
2022/08/27 12:42:17;;;;;;;;;;;20.80;99.90;;;;;;4962571;28;19929;-84
2022/08/27 12:44:44;;;;;;;;;;;20.90;99.90;;;;;;4964516;28;19945;-83
2022/08/27 12:47:12;;;;;;;;;;;21.10;99.90;;;;;;4955337;28;19930;-83
2022/08/27 12:49:41;;;;;;;;;;;21.20;99.90;;;;;;4979558;28;20185;-86
2022/08/27 12:52:22;;;;;;;;;;;21.10;99.90;;;;;;4956736;28;19926;-89
2022/08/27 12:55:03;;;;;;;;;;;20.90;99.90;;;;;;4952125;28;19934;-81
2022/08/27 12:57:34;;;;;;;;;;;20.70;99.90;;;;;;4964433;28;19984;-81
2022/08/27 13:00:13;;;;;;;;;;;20.70;99.90;;;;;;4996600;28;19926;-82
2022/08/27 13:02:49;;;;;;;;;;;20.80;99.90;;;;;;4965130;28;20376;-81
2022/08/27 13:05:34;;;;;;;;;;;20.90;99.90;;;;;;4946460;28;19972;-88
2022/08/27 13:08:01;;;;;;;;;;;20.90;99.90;;;;;;4966712;28;19930;-84
2022/08/27 13:10:30;;;;;;;;;;;21.10;99.90;;;;;;4990652;28;20318;-80
2022/08/27 13:13:10;;;;;;;;;;;21.10;99.90;;;;;;4960851;28;19984;-83
2022/08/27 13:15:40;;;;;;;;;;;21.00;99.90;;;;;;4962647;28;19926;-81
2022/08/27 13:18:10;;;;;;;;;;;20.80;99.90;;;;;;4957265;28;19989;-85
2022/08/27 13:20:58;;;;;;;;;;;20.70;99.90;;;;;;4979796;28;20019;-82
2022/08/27 13:23:26;;;;;;;;;;;20.70;99.90;;;;;;4972962;28;20075;-81
2022/08/27 13:25:55;;;;;;;;;;;20.60;99.90;;;;;;4988372;28;20023;-83
2022/08/27 13:33:29;;;;;;;;;;;20.30;99.90;;;;;;4981879;28;20511;-87
2022/08/27 13:35:56;;;;;;;;;;;20.30;99.90;;;;;;4956970;28;19948;-84
2022/08/27 13:38:24;;;;;;;;;;;20.30;99.90;;;;;;4947990;28;19929;-81
2022/08/27 13:40:50;;;;;;;;;;;20.20;99.90;;;;;;4981677;28;19933;-81
2022/08/27 13:43:16;;;;;;;;;;;20.20;99.90;;;;;;4987277;28;19929;-82
2022/08/27 13:45:46;;;;;;;;;;;20.40;99.90;;;;;;4991794;28;20028;-83
2022/08/27 13:48:13;;;;;;;;;;;20.50;99.90;;;;;;4977722;28;19932;-86
2022/08/27 13:50:46;;;;;;;;;;;20.60;99.90;;;;;;4991213;28;20019;-85
2022/08/27 13:56:01;;;;;;;;;;;20.40;99.90;;;;;;4990947;28;19926;-80
2022/08/27 13:58:29;;;;;;;;;;;20.20;99.90;;;;;;4993322;28;19936;-81
2022/08/27 14:01:07;;;;;;;;;;;20.20;99.90;;;;;;5000621;28;19922;-86
2022/08/27 14:03:34;;;;;;;;;;;20.20;99.90;;;;;;4975994;28;19932;-82
2022/08/27 14:06:01;;;;;;;;;;;20.00;99.90;;;;;;4991285;28;20028;-82
2022/08/27 14:08:28;;;;;;;;;;;19.50;99.90;;;;;;4991014;28;20005;-79
2022/08/27 14:10:58;;;;;;;;;;;20.00;99.90;;;;;;4971462;28;20000;-84
2022/08/27 14:13:24;;;;;;;;;;;20.00;99.90;;;;;;4991428;28;20328;-84
2022/08/27 14:15:52;;;;;;;;;;;20.00;99.90;;;;;;4974546;28;19996;-82
2022/08/27 14:18:26;;;;;;;;;;;20.00;99.90;;;;;;4973114;28;20027;-82
2022/08/27 14:20:52;;;;;;;;;;;19.90;99.90;;;;;;4988499;28;19933;-84
2022/08/27 14:23:18;;;;;;;;;;;19.70;99.90;;;;;;4986269;28;19929;-81
2022/08/27 14:25:45;;;;;;;;;;;19.70;99.90;;;;;;4989884;28;19929;-83
2022/08/27 14:28:11;;;;;;;;;;;19.70;99.90;;;;;;4989445;28;19976;-82
2022/08/27 14:30:36;;;;;;;;;;;19.60;99.90;;;;;;4983030;28;19929;-80
2022/08/27 14:33:03;;;;;;;;;;;19.60;99.90;;;;;;4956853;28;20741;-79
2022/08/27 14:35:30;;;;;;;;;;;19.50;99.90;;;;;;4987554;28;19981;-81
2022/08/27 14:37:56;;;;;;;;;;;19.50;99.90;;;;;;4999494;28;19929;-83
2022/08/27 14:40:22;;;;;;;;;;;19.50;99.90;;;;;;4991094;28;20307;-86
2022/08/27 14:42:48;;;;;;;;;;;19.50;99.90;;;;;;4992686;28;19930;-82
2022/08/27 14:45:15;;;;;;;;;;;19.40;99.90;;;;;;4957864;28;19936;-84
2022/08/27 14:47:42;;;;;;;;;;;19.70;99.90;;;;;;4970958;28;19925;-81
2022/08/27 14:50:09;;;;;;;;;;;19.40;99.90;;;;;;4992490;28;19933;-82
2022/08/27 14:52:36;;;;;;;;;;;19.50;99.90;;;;;;4993339;28;20629;-81
2022/08/27 14:55:02;;;;;;;;;;;19.90;99.90;;;;;;4974012;28;19925;-86
2022/08/27 14:57:28;;;;;;;;;;;;;;;;;;4972175;28;19935;-77
2022/08/27 14:59:54;;;;;;;;;;;19.40;99.90;;;;;;4989541;28;20560;-79
2022/08/27 15:02:22;;;;;;;;;;;19.30;99.90;;;;;;4976171;28;19921;-90
2022/08/27 15:04:51;;;;;;;;;;;19.30;99.90;;;;;;4990922;28;19925;-82
2022/08/27 15:07:18;;;;;;;;;;;19.30;99.90;;;;;;4973087;28;19944;-79
2022/08/27 15:09:45;;;;;;;;;;;19.30;99.90;;;;;;4993936;28;19972;-84
2022/08/27 15:12:12;;;;;;;;;;;19.30;99.90;;;;;;4976559;28;19938;-81
2022/08/27 15:14:38;;;;;;;;;;;19.30;99.90;;;;;;4963196;28;20069;-85
2022/08/27 15:17:07;;;;;;;;;;;19.20;99.90;;;;;;4990929;28;19925;-81
2022/08/27 15:19:33;;;;;;;;;;;19.20;99.90;;;;;;4969713;28;19929;-80
2022/08/27 15:22:09;;;;;;;;;;;19.20;99.90;;;;;;4959145;28;20354;-83